sensor_id;sensor_type;location;lat;lon;timestamp;pressure;altitude;pressure_sealevel;temperature;humidity
59545;BME280;45368;55.002;-1.592;2023-07-20T00:01:35;100792.53;;;18.36;47.54
59545;BME280;45368;55.002;-1.592;2023-07-20T00:04:02;100792.99;;;17.93;47.89
59545;BME280;45368;55.002;-1.592;2023-07-20T00:06:29;100792.03;;;17.78;48.79
59545;BME280;45368;55.002;-1.592;2023-07-20T00:08:57;100792.38;;;16.71;50.52
59545;BME280;45368;55.002;-1.592;2023-07-20T00:11:26;100786.92;;;17.35;49.88
59545;BME280;45368;55.002;-1.592;2023-07-20T00:13:54;100790.03;;;17.28;49.06
59545;BME280;45368;55.002;-1.592;2023-07-20T00:16:22;100790.12;;;17.96;48.47
59545;BME280;45368;55.002;-1.592;2023-07-20T00:18:49;100787.10;;;17.03;49.11
59545;BME280;45368;55.002;-1.592;2023-07-20T00:21:17;100786.03;;;17.92;48.29
59545;BME280;45368;55.002;-1.592;2023-07-20T00:23:45;100788.08;;;16.94;49.55
59545;BME280;45368;55.002;-1.592;2023-07-20T00:26:12;100783.03;;;17.26;49.34
59545;BME280;45368;55.002;-1.592;2023-07-20T00:28:40;100784.68;;;17.59;48.73
59545;BME280;45368;55.002;-1.592;2023-07-20T00:31:06;100781.32;;;17.54;48.18
59545;BME280;45368;55.002;-1.592;2023-07-20T00:33:33;100780.74;;;17.62;48.52
59545;BME280;45368;55.002;-1.592;2023-07-20T00:36:01;100778.37;;;16.64;49.50
59545;BME280;45368;55.002;-1.592;2023-07-20T00:38:29;100778.32;;;16.15;50.87
59545;BME280;45368;55.002;-1.592;2023-07-20T00:40:56;100779.41;;;15.68;51.33
59545;BME280;45368;55.002;-1.592;2023-07-20T00:43:24;100783.10;;;15.24;53.33
59545;BME280;45368;55.002;-1.592;2023-07-20T00:45:52;100781.19;;;15.10;52.88
59545;BME280;45368;55.002;-1.592;2023-07-20T00:48:20;100781.97;;;14.82;54.66
59545;BME280;45368;55.002;-1.592;2023-07-20T00:50:47;100777.56;;;14.95;53.66
59545;BME280;45368;55.002;-1.592;2023-07-20T00:53:15;100777.11;;;14.59;54.37
59545;BME280;45368;55.002;-1.592;2023-07-20T00:55:42;100776.15;;;14.77;53.45
59545;BME280;45368;55.002;-1.592;2023-07-20T00:58:10;100777.51;;;14.56;53.99
59545;BME280;45368;55.002;-1.592;2023-07-20T01:00:38;100771.94;;;15.34;51.73
59545;BME280;45368;55.002;-1.592;2023-07-20T01:03:05;100770.00;;;15.03;52.16
59545;BME280;45368;55.002;-1.592;2023-07-20T01:05:39;100772.32;;;14.18;53.51
59545;BME280;45368;55.002;-1.592;2023-07-20T01:08:12;100768.62;;;15.19;51.55
59545;BME280;45368;55.002;-1.592;2023-07-20T01:10:46;100770.34;;;14.92;52.26
59545;BME280;45368;55.002;-1.592;2023-07-20T01:13:18;100774.33;;;14.13;53.77
59545;BME280;45368;55.002;-1.592;2023-07-20T01:15:49;100771.93;;;14.88;52.32
59545;BME280;45368;55.002;-1.592;2023-07-20T01:18:16;100768.74;;;14.98;51.68
59545;BME280;45368;55.002;-1.592;2023-07-20T01:20:43;100768.28;;;14.75;52.02
59545;BME280;45368;55.002;-1.592;2023-07-20T01:23:27;100773.23;;;13.76;54.67
59545;BME280;45368;55.002;-1.592;2023-07-20T01:26:11;100777.93;;;12.47;57.65
59545;BME280;45368;55.002;-1.592;2023-07-20T01:29:04;100776.51;;;12.59;57.71
59545;BME280;45368;55.002;-1.592;2023-07-20T01:31:40;100774.14;;;13.48;56.16
59545;BME280;45368;55.002;-1.592;2023-07-20T01:34:09;100773.54;;;13.37;56.40
59545;BME280;45368;55.002;-1.592;2023-07-20T01:36:38;100768.04;;;13.44;55.50
59545;BME280;45368;55.002;-1.592;2023-07-20T01:39:06;100760.18;;;15.03;52.74
59545;BME280;45368;55.002;-1.592;2023-07-20T01:41:35;100760.22;;;15.09;51.81
59545;BME280;45368;55.002;-1.592;2023-07-20T01:44:04;100766.45;;;13.48;55.13
59545;BME280;45368;55.002;-1.592;2023-07-20T01:46:31;100766.74;;;13.61;54.82
59545;BME280;45368;55.002;-1.592;2023-07-20T01:48:58;100767.43;;;13.38;55.88
59545;BME280;45368;55.002;-1.592;2023-07-20T01:51:26;100765.10;;;13.87;54.28
59545;BME280;45368;55.002;-1.592;2023-07-20T01:53:54;100767.27;;;13.05;56.02
59545;BME280;45368;55.002;-1.592;2023-07-20T01:56:21;100765.36;;;13.99;53.59
59545;BME280;45368;55.002;-1.592;2023-07-20T01:58:49;100764.70;;;13.96;53.90
59545;BME280;45368;55.002;-1.592;2023-07-20T02:01:17;100764.06;;;13.63;55.64
59545;BME280;45368;55.002;-1.592;2023-07-20T02:03:43;100762.57;;;13.88;53.91
59545;BME280;45368;55.002;-1.592;2023-07-20T02:06:11;100759.56;;;13.64;55.61
59545;BME280;45368;55.002;-1.592;2023-07-20T02:08:39;100755.37;;;13.27;55.27
59545;BME280;45368;55.002;-1.592;2023-07-20T02:11:06;100754.47;;;12.41;58.12
59545;BME280;45368;55.002;-1.592;2023-07-20T02:13:34;100750.58;;;12.97;56.88
59545;BME280;45368;55.002;-1.592;2023-07-20T02:16:02;100751.64;;;12.91;56.67
59545;BME280;45368;55.002;-1.592;2023-07-20T02:18:29;100754.19;;;12.00;58.93
59545;BME280;45368;55.002;-1.592;2023-07-20T02:20:56;100751.91;;;12.40;57.75
59545;BME280;45368;55.002;-1.592;2023-07-20T02:23:23;100748.87;;;13.00;56.86
59545;BME280;45368;55.002;-1.592;2023-07-20T02:25:51;100747.35;;;12.67;57.68
59545;BME280;45368;55.002;-1.592;2023-07-20T02:28:18;100745.03;;;13.00;57.53
59545;BME280;45368;55.002;-1.592;2023-07-20T02:30:45;100742.92;;;12.81;55.93
59545;BME280;45368;55.002;-1.592;2023-07-20T02:33:12;100742.51;;;13.33;55.25
59545;BME280;45368;55.002;-1.592;2023-07-20T02:35:40;100743.04;;;12.79;56.23
59545;BME280;45368;55.002;-1.592;2023-07-20T02:38:07;100741.53;;;12.32;56.97
59545;BME280;45368;55.002;-1.592;2023-07-20T02:40:35;100742.12;;;13.11;55.66
59545;BME280;45368;55.002;-1.592;2023-07-20T02:43:02;100741.78;;;12.91;55.87
59545;BME280;45368;55.002;-1.592;2023-07-20T02:45:29;100742.54;;;12.98;55.51
59545;BME280;45368;55.002;-1.592;2023-07-20T02:47:56;100741.38;;;12.75;56.19
59545;BME280;45368;55.002;-1.592;2023-07-20T02:50:23;100741.15;;;12.60;57.16
59545;BME280;45368;55.002;-1.592;2023-07-20T02:52:51;100740.10;;;12.95;56.59
59545;BME280;45368;55.002;-1.592;2023-07-20T02:55:17;100741.02;;;12.87;56.38
59545;BME280;45368;55.002;-1.592;2023-07-20T02:57:44;100738.88;;;13.41;54.91
59545;BME280;45368;55.002;-1.592;2023-07-20T03:00:13;100735.90;;;12.81;56.65
59545;BME280;45368;55.002;-1.592;2023-07-20T03:02:41;100739.79;;;12.19;58.50
59545;BME280;45368;55.002;-1.592;2023-07-20T03:05:09;100739.23;;;12.24;58.13
59545;BME280;45368;55.002;-1.592;2023-07-20T03:07:36;100741.19;;;12.75;57.09
59545;BME280;45368;55.002;-1.592;2023-07-20T03:10:04;100738.46;;;12.87;56.48
59545;BME280;45368;55.002;-1.592;2023-07-20T03:12:32;100742.60;;;12.29;57.80
59545;BME280;45368;55.002;-1.592;2023-07-20T03:14:59;100733.26;;;13.11;56.20
59545;BME280;45368;55.002;-1.592;2023-07-20T03:17:27;100735.81;;;13.37;56.16
59545;BME280;45368;55.002;-1.592;2023-07-20T03:19:55;100735.97;;;13.43;54.46
59545;BME280;45368;55.002;-1.592;2023-07-20T03:22:23;100735.45;;;12.85;55.93
59545;BME280;45368;55.002;-1.592;2023-07-20T03:24:50;100739.04;;;13.30;55.30
59545;BME280;45368;55.002;-1.592;2023-07-20T03:27:17;100736.75;;;13.21;55.28
59545;BME280;45368;55.002;-1.592;2023-07-20T03:29:44;100739.90;;;12.69;56.97
59545;BME280;45368;55.002;-1.592;2023-07-20T03:32:12;100739.09;;;12.66;57.10
59545;BME280;45368;55.002;-1.592;2023-07-20T03:34:39;100737.97;;;13.22;56.35
59545;BME280;45368;55.002;-1.592;2023-07-20T03:37:07;100739.43;;;12.74;57.25
59545;BME280;45368;55.002;-1.592;2023-07-20T03:39:35;100738.62;;;13.18;55.95
59545;BME280;45368;55.002;-1.592;2023-07-20T03:42:01;100744.13;;;12.97;56.83
59545;BME280;45368;55.002;-1.592;2023-07-20T03:44:29;100741.64;;;12.75;56.65
59545;BME280;45368;55.002;-1.592;2023-07-20T03:46:56;100742.42;;;12.87;56.84
59545;BME280;45368;55.002;-1.592;2023-07-20T03:49:23;100744.62;;;12.56;57.38
59545;BME280;45368;55.002;-1.592;2023-07-20T03:51:50;100748.73;;;12.26;58.33
59545;BME280;45368;55.002;-1.592;2023-07-20T03:54:18;100747.55;;;12.26;58.60
59545;BME280;45368;55.002;-1.592;2023-07-20T03:56:44;100749.94;;;12.10;58.56
59545;BME280;45368;55.002;-1.592;2023-07-20T03:59:12;100748.21;;;11.90;59.28
59545;BME280;45368;55.002;-1.592;2023-07-20T04:01:39;100745.67;;;11.79;58.77
59545;BME280;45368;55.002;-1.592;2023-07-20T04:04:08;100744.83;;;12.88;56.79
59545;BME280;45368;55.002;-1.592;2023-07-20T04:06:35;100745.95;;;12.20;58.56
59545;BME280;45368;55.002;-1.592;2023-07-20T04:09:03;100744.22;;;12.70;57.08
59545;BME280;45368;55.002;-1.592;2023-07-20T04:11:30;100744.26;;;13.00;56.69
59545;BME280;45368;55.002;-1.592;2023-07-20T04:13:58;100746.66;;;12.25;58.29
59545;BME280;45368;55.002;-1.592;2023-07-20T04:16:25;100746.67;;;12.91;56.43
59545;BME280;45368;55.002;-1.592;2023-07-20T04:18:54;100748.12;;;12.74;57.47
59545;BME280;45368;55.002;-1.592;2023-07-20T04:21:22;100745.87;;;12.35;56.96
59545;BME280;45368;55.002;-1.592;2023-07-20T04:23:49;100746.08;;;12.46;57.33
59545;BME280;45368;55.002;-1.592;2023-07-20T04:26:16;100742.81;;;12.46;57.70
59545;BME280;45368;55.002;-1.592;2023-07-20T04:28:43;100742.08;;;12.31;58.39
59545;BME280;45368;55.002;-1.592;2023-07-20T04:31:11;100738.14;;;12.39;58.19
59545;BME280;45368;55.002;-1.592;2023-07-20T04:33:39;100741.49;;;12.82;57.47
59545;BME280;45368;55.002;-1.592;2023-07-20T04:36:07;100742.45;;;12.06;59.63
59545;BME280;45368;55.002;-1.592;2023-07-20T04:38:35;100742.52;;;11.74;60.27
59545;BME280;45368;55.002;-1.592;2023-07-20T04:41:02;100741.93;;;12.11;58.54
59545;BME280;45368;55.002;-1.592;2023-07-20T04:43:29;100742.59;;;12.40;58.73
59545;BME280;45368;55.002;-1.592;2023-07-20T04:45:58;100738.61;;;13.00;57.20
59545;BME280;45368;55.002;-1.592;2023-07-20T04:48:25;100740.50;;;12.10;58.64
59545;BME280;45368;55.002;-1.592;2023-07-20T04:50:52;100739.83;;;12.63;57.93
59545;BME280;45368;55.002;-1.592;2023-07-20T04:53:19;100736.34;;;12.99;57.12
59545;BME280;45368;55.002;-1.592;2023-07-20T04:55:49;100733.80;;;12.71;57.55
59545;BME280;45368;55.002;-1.592;2023-07-20T04:58:18;100735.99;;;12.56;58.32
59545;BME280;45368;55.002;-1.592;2023-07-20T05:00:45;100737.65;;;12.43;58.25
59545;BME280;45368;55.002;-1.592;2023-07-20T05:03:12;100740.74;;;12.68;58.79
59545;BME280;45368;55.002;-1.592;2023-07-20T05:05:40;100741.10;;;12.37;58.84
59545;BME280;45368;55.002;-1.592;2023-07-20T05:08:07;100744.22;;;12.73;58.49
59545;BME280;45368;55.002;-1.592;2023-07-20T05:10:36;100745.16;;;12.33;58.85
59545;BME280;45368;55.002;-1.592;2023-07-20T05:13:04;100742.77;;;13.29;57.49
59545;BME280;45368;55.002;-1.592;2023-07-20T05:15:33;100746.74;;;13.25;56.56
59545;BME280;45368;55.002;-1.592;2023-07-20T05:18:00;100746.36;;;13.12;56.79
59545;BME280;45368;55.002;-1.592;2023-07-20T05:20:29;100747.76;;;12.84;57.79
59545;BME280;45368;55.002;-1.592;2023-07-20T05:22:59;100744.20;;;11.73;60.64
59545;BME280;45368;55.002;-1.592;2023-07-20T05:25:26;100749.66;;;11.53;60.97
59545;BME280;45368;55.002;-1.592;2023-07-20T05:27:53;100744.76;;;11.95;60.85
59545;BME280;45368;55.002;-1.592;2023-07-20T05:30:20;100744.24;;;12.53;59.86
59545;BME280;45368;55.002;-1.592;2023-07-20T05:32:47;100745.46;;;12.52;59.78
59545;BME280;45368;55.002;-1.592;2023-07-20T05:35:15;100746.73;;;12.65;59.81
59545;BME280;45368;55.002;-1.592;2023-07-20T05:37:43;100748.50;;;12.65;59.98
59545;BME280;45368;55.002;-1.592;2023-07-20T05:40:11;100744.25;;;13.26;58.57
59545;BME280;45368;55.002;-1.592;2023-07-20T05:42:38;100744.15;;;12.68;59.28
59545;BME280;45368;55.002;-1.592;2023-07-20T05:45:06;100746.58;;;13.21;58.97
59545;BME280;45368;55.002;-1.592;2023-07-20T05:47:34;100748.30;;;12.76;60.47
59545;BME280;45368;55.002;-1.592;2023-07-20T05:50:01;100746.64;;;12.71;60.24
59545;BME280;45368;55.002;-1.592;2023-07-20T05:52:29;100742.41;;;12.54;60.33
59545;BME280;45368;55.002;-1.592;2023-07-20T05:54:57;100744.56;;;12.80;60.35
59545;BME280;45368;55.002;-1.592;2023-07-20T05:57:24;100742.78;;;13.27;59.53
59545;BME280;45368;55.002;-1.592;2023-07-20T05:59:52;100743.59;;;13.00;60.05
59545;BME280;45368;55.002;-1.592;2023-07-20T06:02:19;100747.24;;;12.81;60.24
59545;BME280;45368;55.002;-1.592;2023-07-20T06:04:45;100749.69;;;13.04;60.84
59545;BME280;45368;55.002;-1.592;2023-07-20T06:07:13;100748.10;;;12.93;60.80
59545;BME280;45368;55.002;-1.592;2023-07-20T06:09:40;100743.60;;;13.13;60.19
59545;BME280;45368;55.002;-1.592;2023-07-20T06:12:09;100742.89;;;14.27;57.76
59545;BME280;45368;55.002;-1.592;2023-07-20T06:14:36;100745.51;;;13.73;58.80
59545;BME280;45368;55.002;-1.592;2023-07-20T06:17:04;100749.80;;;13.84;58.69
59545;BME280;45368;55.002;-1.592;2023-07-20T06:19:32;100752.59;;;12.82;61.26
59545;BME280;45368;55.002;-1.592;2023-07-20T06:21:58;100750.34;;;13.31;59.75
59545;BME280;45368;55.002;-1.592;2023-07-20T06:24:25;100747.48;;;13.50;59.32
59545;BME280;45368;55.002;-1.592;2023-07-20T06:26:52;100750.87;;;13.84;58.63
59545;BME280;45368;55.002;-1.592;2023-07-20T06:29:20;100747.66;;;13.58;59.18
59545;BME280;45368;55.002;-1.592;2023-07-20T06:31:47;100746.31;;;14.12;58.06
59545;BME280;45368;55.002;-1.592;2023-07-20T06:34:14;100747.18;;;14.16;58.53
59545;BME280;45368;55.002;-1.592;2023-07-20T06:36:41;100750.39;;;13.36;60.23
59545;BME280;45368;55.002;-1.592;2023-07-20T06:39:08;100749.66;;;12.98;59.94
59545;BME280;45368;55.002;-1.592;2023-07-20T06:41:35;100757.39;;;13.10;61.68
59545;BME280;45368;55.002;-1.592;2023-07-20T06:44:03;100752.09;;;13.73;59.10
59545;BME280;45368;55.002;-1.592;2023-07-20T06:46:31;100749.37;;;13.61;58.82
59545;BME280;45368;55.002;-1.592;2023-07-20T06:48:58;100747.94;;;12.94;60.44
59545;BME280;45368;55.002;-1.592;2023-07-20T06:51:25;100752.88;;;13.75;59.01
59545;BME280;45368;55.002;-1.592;2023-07-20T06:53:52;100755.07;;;14.20;57.37
59545;BME280;45368;55.002;-1.592;2023-07-20T06:56:19;100758.26;;;14.17;57.77
59545;BME280;45368;55.002;-1.592;2023-07-20T06:58:47;100758.75;;;14.18;58.31
59545;BME280;45368;55.002;-1.592;2023-07-20T07:01:14;100753.63;;;14.57;55.77
59545;BME280;45368;55.002;-1.592;2023-07-20T07:03:42;100757.40;;;14.21;56.68
59545;BME280;45368;55.002;-1.592;2023-07-20T07:06:09;100758.97;;;14.07;56.31
59545;BME280;45368;55.002;-1.592;2023-07-20T07:08:36;100757.74;;;14.69;55.34
59545;BME280;45368;55.002;-1.592;2023-07-20T07:11:04;100757.35;;;14.47;56.46
59545;BME280;45368;55.002;-1.592;2023-07-20T07:13:31;100755.37;;;14.71;56.07
59545;BME280;45368;55.002;-1.592;2023-07-20T07:15:59;100757.11;;;14.24;56.48
59545;BME280;45368;55.002;-1.592;2023-07-20T07:18:26;100763.30;;;13.90;57.62
59545;BME280;45368;55.002;-1.592;2023-07-20T07:20:54;100757.59;;;13.89;57.24
59545;BME280;45368;55.002;-1.592;2023-07-20T07:23:21;100751.25;;;14.77;55.04
59545;BME280;45368;55.002;-1.592;2023-07-20T07:25:48;100754.35;;;14.60;54.81
59545;BME280;45368;55.002;-1.592;2023-07-20T07:28:15;100753.14;;;14.63;55.28
59545;BME280;45368;55.002;-1.592;2023-07-20T07:30:42;100754.09;;;14.49;55.90
59545;BME280;45368;55.002;-1.592;2023-07-20T07:33:09;100751.84;;;15.22;54.68
59545;BME280;45368;55.002;-1.592;2023-07-20T07:35:37;100760.39;;;14.94;54.34
59545;BME280;45368;55.002;-1.592;2023-07-20T07:38:05;100760.80;;;15.56;53.44
59545;BME280;45368;55.002;-1.592;2023-07-20T07:40:32;100766.62;;;14.72;54.68
59545;BME280;45368;55.002;-1.592;2023-07-20T07:43:00;100762.50;;;15.36;52.81
59545;BME280;45368;55.002;-1.592;2023-07-20T07:45:26;100762.58;;;14.59;56.02
59545;BME280;45368;55.002;-1.592;2023-07-20T07:47:53;100759.95;;;14.97;55.08
59545;BME280;45368;55.002;-1.592;2023-07-20T07:50:21;100760.08;;;14.84;54.79
59545;BME280;45368;55.002;-1.592;2023-07-20T07:52:49;100760.93;;;15.51;54.03
59545;BME280;45368;55.002;-1.592;2023-07-20T07:55:16;100760.71;;;15.34;54.36
59545;BME280;45368;55.002;-1.592;2023-07-20T07:57:44;100762.07;;;14.88;53.95
59545;BME280;45368;55.002;-1.592;2023-07-20T08:00:12;100760.22;;;15.46;53.16
59545;BME280;45368;55.002;-1.592;2023-07-20T08:02:40;100761.70;;;14.77;54.50
59545;BME280;45368;55.002;-1.592;2023-07-20T08:05:08;100760.46;;;15.42;53.00
59545;BME280;45368;55.002;-1.592;2023-07-20T08:07:35;100763.16;;;15.58;53.19
59545;BME280;45368;55.002;-1.592;2023-07-20T08:10:03;100765.12;;;14.91;55.26
59545;BME280;45368;55.002;-1.592;2023-07-20T08:12:31;100763.31;;;15.14;54.34
59545;BME280;45368;55.002;-1.592;2023-07-20T08:14:58;100757.00;;;15.67;53.00
59545;BME280;45368;55.002;-1.592;2023-07-20T08:17:26;100765.09;;;14.39;55.26
59545;BME280;45368;55.002;-1.592;2023-07-20T08:19:53;100759.13;;;15.09;54.04
59545;BME280;45368;55.002;-1.592;2023-07-20T08:22:20;100764.87;;;14.99;54.10
59545;BME280;45368;55.002;-1.592;2023-07-20T08:24:48;100766.51;;;14.98;55.61
59545;BME280;45368;55.002;-1.592;2023-07-20T08:27:15;100765.50;;;15.21;54.29
59545;BME280;45368;55.002;-1.592;2023-07-20T08:29:43;100765.21;;;14.79;54.57
59545;BME280;45368;55.002;-1.592;2023-07-20T08:32:09;100766.82;;;15.44;54.12
59545;BME280;45368;55.002;-1.592;2023-07-20T08:34:37;100771.39;;;14.85;54.95
59545;BME280;45368;55.002;-1.592;2023-07-20T08:37:05;100770.79;;;15.03;54.48
59545;BME280;45368;55.002;-1.592;2023-07-20T08:39:33;100769.61;;;15.61;52.43
59545;BME280;45368;55.002;-1.592;2023-07-20T08:42:01;100771.39;;;15.22;52.87
59545;BME280;45368;55.002;-1.592;2023-07-20T08:44:28;100767.47;;;15.67;52.63
59545;BME280;45368;55.002;-1.592;2023-07-20T08:46:56;100769.24;;;16.45;50.66
59545;BME280;45368;55.002;-1.592;2023-07-20T08:49:24;100768.82;;;15.81;52.55
59545;BME280;45368;55.002;-1.592;2023-07-20T08:51:53;100766.37;;;15.52;53.03
59545;BME280;45368;55.002;-1.592;2023-07-20T08:54:20;100764.04;;;15.98;51.73
59545;BME280;45368;55.002;-1.592;2023-07-20T08:56:48;100765.76;;;16.26;51.34
59545;BME280;45368;55.002;-1.592;2023-07-20T08:59:17;100763.55;;;16.31;50.27
59545;BME280;45368;55.002;-1.592;2023-07-20T09:01:44;100767.11;;;16.94;49.65
59545;BME280;45368;55.002;-1.592;2023-07-20T09:04:11;100769.00;;;16.19;50.33
59545;BME280;45368;55.002;-1.592;2023-07-20T09:06:39;100770.76;;;16.24;50.28
59545;BME280;45368;55.002;-1.592;2023-07-20T09:09:06;100768.99;;;16.69;49.22
59545;BME280;45368;55.002;-1.592;2023-07-20T09:11:34;100767.71;;;17.32;47.88
59545;BME280;45368;55.002;-1.592;2023-07-20T09:14:05;100769.97;;;16.76;48.07
59545;BME280;45368;55.002;-1.592;2023-07-20T09:16:32;100766.28;;;16.55;48.99
59545;BME280;45368;55.002;-1.592;2023-07-20T09:18:59;100766.45;;;16.48;49.41
59545;BME280;45368;55.002;-1.592;2023-07-20T09:21:29;100766.90;;;17.03;47.66
59545;BME280;45368;55.002;-1.592;2023-07-20T09:23:57;100763.64;;;16.27;49.33
59545;BME280;45368;55.002;-1.592;2023-07-20T09:26:24;100763.41;;;17.23;48.06
59545;BME280;45368;55.002;-1.592;2023-07-20T09:28:52;100763.37;;;16.71;43.86
59545;BME280;45368;55.002;-1.592;2023-07-20T09:31:20;100761.08;;;17.26;43.71
59545;BME280;45368;55.002;-1.592;2023-07-20T09:33:50;100761.68;;;18.53;42.76
59545;BME280;45368;55.002;-1.592;2023-07-20T09:36:18;100762.49;;;18.15;42.58
59545;BME280;45368;55.002;-1.592;2023-07-20T09:38:46;100762.27;;;17.57;42.82
59545;BME280;45368;55.002;-1.592;2023-07-20T09:41:14;100762.01;;;17.53;42.66
59545;BME280;45368;55.002;-1.592;2023-07-20T09:43:42;100755.42;;;18.25;41.10
59545;BME280;45368;55.002;-1.592;2023-07-20T09:46:09;100751.55;;;18.43;40.85
59545;BME280;45368;55.002;-1.592;2023-07-20T09:48:37;100752.50;;;17.56;43.10
59545;BME280;45368;55.002;-1.592;2023-07-20T09:51:05;100744.57;;;18.71;41.80
59545;BME280;45368;55.002;-1.592;2023-07-20T09:53:34;100740.86;;;19.38;40.89
59545;BME280;45368;55.002;-1.592;2023-07-20T09:56:02;100747.97;;;17.62;42.70
59545;BME280;45368;55.002;-1.592;2023-07-20T09:58:32;100741.75;;;19.46;40.63
59545;BME280;45368;55.002;-1.592;2023-07-20T10:01:03;100738.99;;;18.95;42.84
59545;BME280;45368;55.002;-1.592;2023-07-20T10:03:35;100743.18;;;18.42;43.70
59545;BME280;45368;55.002;-1.592;2023-07-20T10:06:07;100747.00;;;17.30;44.86
59545;BME280;45368;55.002;-1.592;2023-07-20T10:08:39;100740.76;;;17.52;44.83
59545;BME280;45368;55.002;-1.592;2023-07-20T10:11:08;100733.03;;;18.20;41.59
59545;BME280;45368;55.002;-1.592;2023-07-20T10:13:38;100735.36;;;18.97;41.48
59545;BME280;45368;55.002;-1.592;2023-07-20T10:16:10;100729.23;;;19.82;39.88
59545;BME280;45368;55.002;-1.592;2023-07-20T10:18:43;100730.25;;;19.60;39.11
59545;BME280;45368;55.002;-1.592;2023-07-20T10:21:14;100734.45;;;19.54;38.80
59545;BME280;45368;55.002;-1.592;2023-07-20T10:23:44;100736.74;;;19.28;39.00
59545;BME280;45368;55.002;-1.592;2023-07-20T10:26:12;100735.99;;;19.14;38.01
59545;BME280;45368;55.002;-1.592;2023-07-20T10:28:40;100733.81;;;19.10;39.74
59545;BME280;45368;55.002;-1.592;2023-07-20T10:31:09;100737.46;;;18.54;41.00
59545;BME280;45368;55.002;-1.592;2023-07-20T10:33:37;100734.55;;;18.84;41.33
59545;BME280;45368;55.002;-1.592;2023-07-20T10:36:05;100734.82;;;18.80;41.88
59545;BME280;45368;55.002;-1.592;2023-07-20T10:38:40;100733.63;;;19.06;42.26
59545;BME280;45368;55.002;-1.592;2023-07-20T10:41:28;100733.51;;;18.85;42.28
59545;BME280;45368;55.002;-1.592;2023-07-20T10:44:01;100731.52;;;18.07;44.73
59545;BME280;45368;55.002;-1.592;2023-07-20T10:46:45;100733.36;;;17.62;43.19
59545;BME280;45368;55.002;-1.592;2023-07-20T10:49:14;100734.24;;;17.71;45.48
59545;BME280;45368;55.002;-1.592;2023-07-20T10:51:42;100727.21;;;18.66;42.08
59545;BME280;45368;55.002;-1.592;2023-07-20T10:54:34;100720.36;;;19.44;40.76
59545;BME280;45368;55.002;-1.592;2023-07-20T10:57:22;100717.47;;;19.07;40.80
59545;BME280;45368;55.002;-1.592;2023-07-20T10:59:49;100714.17;;;19.50;41.21
59545;BME280;45368;55.002;-1.592;2023-07-20T11:02:18;100711.29;;;19.47;41.53
59545;BME280;45368;55.002;-1.592;2023-07-20T11:04:47;100704.00;;;20.22;40.23
59545;BME280;45368;55.002;-1.592;2023-07-20T11:07:16;100702.67;;;19.60;40.08
59545;BME280;45368;55.002;-1.592;2023-07-20T11:09:46;100701.48;;;19.30;40.62
59545;BME280;45368;55.002;-1.592;2023-07-20T11:12:14;100694.99;;;18.73;42.00
59545;BME280;45368;55.002;-1.592;2023-07-20T11:14:43;100691.95;;;19.02;41.32
59545;BME280;45368;55.002;-1.592;2023-07-20T11:17:12;100690.35;;;18.94;41.71
59545;BME280;45368;55.002;-1.592;2023-07-20T11:19:40;100687.60;;;19.63;40.54
59545;BME280;45368;55.002;-1.592;2023-07-20T11:22:08;100685.39;;;19.64;40.61
59545;BME280;45368;55.002;-1.592;2023-07-20T11:24:39;100682.64;;;20.73;38.57
59545;BME280;45368;55.002;-1.592;2023-07-20T11:27:06;100681.90;;;21.42;39.00
59545;BME280;45368;55.002;-1.592;2023-07-20T11:29:35;100680.58;;;21.54;36.86
59545;BME280;45368;55.002;-1.592;2023-07-20T11:32:03;100675.67;;;22.77;35.13
59545;BME280;45368;55.002;-1.592;2023-07-20T11:34:31;100674.96;;;20.08;38.56
59545;BME280;45368;55.002;-1.592;2023-07-20T11:36:59;100671.43;;;21.27;36.93
59545;BME280;45368;55.002;-1.592;2023-07-20T11:39:26;100673.14;;;21.43;35.92
59545;BME280;45368;55.002;-1.592;2023-07-20T11:41:55;100672.75;;;21.39;36.79
59545;BME280;45368;55.002;-1.592;2023-07-20T11:44:24;100672.12;;;21.60;36.80
59545;BME280;45368;55.002;-1.592;2023-07-20T11:47:00;100672.95;;;19.80;38.52
59545;BME280;45368;55.002;-1.592;2023-07-20T11:49:27;100669.40;;;21.38;37.64
59545;BME280;45368;55.002;-1.592;2023-07-20T11:51:56;100670.13;;;20.90;38.07
59545;BME280;45368;55.002;-1.592;2023-07-20T11:54:23;100669.29;;;20.63;37.83
59545;BME280;45368;55.002;-1.592;2023-07-20T11:56:53;100666.83;;;20.84;37.47
59545;BME280;45368;55.002;-1.592;2023-07-20T11:59:20;100671.96;;;19.49;40.20
59545;BME280;45368;55.002;-1.592;2023-07-20T12:01:48;100668.87;;;19.90;38.82
59545;BME280;45368;55.002;-1.592;2023-07-20T12:04:16;100679.69;;;19.45;41.60
59545;BME280;45368;55.002;-1.592;2023-07-20T12:06:45;100689.15;;;18.64;45.75
59545;BME280;45368;55.002;-1.592;2023-07-20T12:09:14;100700.82;;;17.70;56.22
59545;BME280;45368;55.002;-1.592;2023-07-20T12:11:43;100698.12;;;18.92;57.40
59545;BME280;45368;55.002;-1.592;2023-07-20T12:14:11;100697.91;;;18.48;57.84
59545;BME280;45368;55.002;-1.592;2023-07-20T12:16:38;100708.61;;;16.15;58.37
59545;BME280;45368;55.002;-1.592;2023-07-20T12:19:08;100711.45;;;15.98;59.01
59545;BME280;45368;55.002;-1.592;2023-07-20T12:21:37;100709.53;;;16.58;59.75
59545;BME280;45368;55.002;-1.592;2023-07-20T12:24:05;100713.60;;;17.64;58.76
59545;BME280;45368;55.002;-1.592;2023-07-20T12:26:33;100714.44;;;16.72;59.19
59545;BME280;45368;55.002;-1.592;2023-07-20T12:29:01;100704.10;;;14.71;66.37
59545;BME280;45368;55.002;-1.592;2023-07-20T12:31:28;100693.15;;;16.00;63.98
59545;BME280;45368;55.002;-1.592;2023-07-20T12:33:57;100687.69;;;16.69;61.53
59545;BME280;45368;55.002;-1.592;2023-07-20T12:36:26;100686.68;;;15.80;61.27
59545;BME280;45368;55.002;-1.592;2023-07-20T12:38:53;100684.67;;;15.14;63.84
59545;BME280;45368;55.002;-1.592;2023-07-20T12:41:20;100683.42;;;14.63;65.43
59545;BME280;45368;55.002;-1.592;2023-07-20T12:43:47;100680.94;;;14.91;66.17
59545;BME280;45368;55.002;-1.592;2023-07-20T12:46:15;100687.51;;;12.88;70.72